^^
Saratoga-Weather Station Historical Data
Daily Summary for September 29, 2020 Units:  Metric    English   Both
Daily Weekly Monthly Yearly Custom
  High: Low: Average:
Temperature: 13.9 °C 4.8 °C 9.2 °C
Dew Point: 8.9 °C 3.9 °C 6.8 °C
Humidity: 96% 67% 85%
Wind Speed: 22.7km/h 0km/h 4.7km/h
Wind Gust: 27.4km/h - -
Wind- - SSW
Pressure: 1007.1 hPa 992.5 hPa -
Precipitation: 4.1 mm    
Historical Graphs
 
 
Tabular Data for September 29, 2020
Time Temperature Dew Point Pressure Wind Wind Speed Wind Gust Humidity Rainfall Rate (Hourly) solar
00:04 6.6 °C 5.1 °C 1007.1 hPa ESE 3.2 km/h 6.4 km/h 90% 0.0 mm 0 W/m2
00:09 6.9 °C 5.2 °C 1007.1 hPa West 1.4 km/h 4.8 km/h 89% 0.0 mm 0 W/m2
00:14 7.3 °C 5.3 °C 1007.1 hPa NW 4.7 km/h 4.8 km/h 87% 0.0 mm 0 W/m2
00:19 7.6 °C 5.4 °C 1007.1 hPa ENE 3.2 km/h 4.8 km/h 86% 0.0 mm 0 W/m2
00:24 7.8 °C 5.4 °C 1007.1 hPa West 4.7 km/h 4.8 km/h 85% 0.0 mm 0 W/m2
00:29 8.1 °C 5.6 °C 1007.1 hPa Calm   6.4 km/h 84% 0.0 mm 0 W/m2
00:34 8.2 °C 5.7 °C 1007.1 hPa NNW 4.7 km/h 4.8 km/h 84% 0.2 mm 0 W/m2
00:39 8.3 °C 5.9 °C 1007.1 hPa North 3.2 km/h 4.8 km/h 85% 0.2 mm 0 W/m2
00:44 8.3 °C 5.9 °C 1007.1 hPa NW 3.2 km/h 8 km/h 85% 0.2 mm 0 W/m2
00:49 8.3 °C 6.1 °C 1006.8 hPa NE 1.4 km/h 1.6 km/h 86% 0.2 mm 0 W/m2
00:54 8.2 °C 6.2 °C 1006.8 hPa ENE 1.4 km/h 8 km/h 87% 0.5 mm 0 W/m2
00:59 8.2 °C 6.2 °C 1006.8 hPa North 1.4 km/h 4.8 km/h 87% 0.5 mm 0 W/m2
01:04 8.2 °C 6.3 °C 1006.8 hPa WNW 6.4 km/h 6.4 km/h 88% 0.5 mm 0 W/m2
01:09 8.2 °C 6.5 °C 1006.4 hPa East 4.7 km/h 6.4 km/h 89% 0.5 mm 0 W/m2
01:14 8.2 °C 6.5 °C 1006.4 hPa Calm   3.2 km/h 89% 0.5 mm 0 W/m2
01:19 8.2 °C 6.5 °C 1006.4 hPa NW 3.2 km/h 6.4 km/h 89% 0.5 mm 0 W/m2
01:24 8.2 °C 6.7 °C 1006.4 hPa Calm   8 km/h 90% 0.5 mm 0 W/m2
01:29 8.2 °C 6.7 °C 1006.4 hPa ENE 4.7 km/h 4.8 km/h 90% 0.5 mm 0 W/m2
01:34 8.2 °C 6.7 °C 1006.1 hPa NE 6.4 km/h 6.4 km/h 90% 0.5 mm 0 W/m2
01:39 8.2 °C 6.7 °C 1006.1 hPa NE 3.2 km/h 6.4 km/h 90% 0.5 mm 0 W/m2
01:44 8.3 °C 6.8 °C 1006.1 hPa Calm   1.6 km/h 90% 0.5 mm 0 W/m2
01:49 8.3 °C 6.8 °C 1006.1 hPa West 3.2 km/h 4.8 km/h 90% 0.5 mm 0 W/m2
01:54 8.3 °C 6.9 °C 1006.1 hPa NW 1.4 km/h 4.8 km/h 91% 0.2 mm 0 W/m2
01:59 8.4 °C 6.9 °C 1006.1 hPa North 4.7 km/h 4.8 km/h 90% 0.2 mm 0 W/m2
02:04 8.4 °C 6.9 °C 1005.8 hPa Calm   4.8 km/h 90% 0.0 mm 0 W/m2
02:09 8.5 °C 7 °C 1005.8 hPa NNW 3.2 km/h 6.4 km/h 90% 0.0 mm 0 W/m2
02:14 8.7 °C 7.2 °C 1005.8 hPa NNW 7.9 km/h 16.1 km/h 90% 0.0 mm 0 W/m2
02:19 8.8 °C 7.2 °C 1005.8 hPa NW 3.2 km/h 12.9 km/h 90% 0.0 mm 0 W/m2
02:24 8.9 °C 7.3 °C 1005.8 hPa NNW 1.4 km/h 6.4 km/h 90% 0.0 mm 0 W/m2
02:29 8.9 °C 7.3 °C 1005.8 hPa NW 3.2 km/h 6.4 km/h 90% 0.0 mm 0 W/m2
02:34 9.1 °C 7.5 °C 1005.8 hPa ESE 4.7 km/h 14.5 km/h 90% 0.0 mm 0 W/m2
02:39 9.1 °C 7.5 °C 1005.8 hPa North 1.4 km/h 6.4 km/h 90% 0.0 mm 0 W/m2
02:44 9.2 °C 7.6 °C 1005.4 hPa ENE 1.4 km/h 4.8 km/h 90% 0.0 mm 0 W/m2
02:49 9.2 °C 7.6 °C 1005.4 hPa WNW 6.4 km/h 17.7 km/h 90% 0.0 mm 0 W/m2
02:54 9.3 °C 7.7 °C 1005.4 hPa Calm   3.2 km/h 90% 0.0 mm 0 W/m2
02:59 9.3 °C 7.7 °C 1005.1 hPa WNW 6.4 km/h 12.9 km/h 90% 0.0 mm 0 W/m2
03:04 9.3 °C 7.7 °C 1005.1 hPa NNE 6.4 km/h 6.4 km/h 90% 0.0 mm 0 W/m2
03:09 9.3 °C 7.7 °C 1005.1 hPa NNE 7.9 km/h 14.5 km/h 90% 0.0 mm 0 W/m2
03:14 9.4 °C 7.8 °C 1005.1 hPa SSW 3.2 km/h 6.4 km/h 90% 0.0 mm 0 W/m2
03:19 9.4 °C 7.8 °C 1004.7 hPa North 4.7 km/h 14.5 km/h 90% 0.0 mm 0 W/m2
03:25 9.4 °C 7.8 °C 1004.7 hPa Calm   6.4 km/h 90% 0.0 mm 0 W/m2
03:30 9.4 °C 7.8 °C 1004.7 hPa NE 6.4 km/h 16.1 km/h 90% 0.0 mm 0 W/m2
03:35 9.6 °C 8 °C 1004.4 hPa WNW 6.4 km/h 9.7 km/h 90% 0.0 mm 0 W/m2
03:40 9.6 °C 7.9 °C 1004.1 hPa West 11.1 km/h 14.5 km/h 89% 0.0 mm 0 W/m2
03:45 9.6 °C 7.9 °C 1004.1 hPa West 1.4 km/h 9.7 km/h 89% 0.0 mm 0 W/m2
03:50 9.6 °C 7.9 °C 1003.7 hPa SW 1.4 km/h 14.5 km/h 89% 0.0 mm 0 W/m2
03:55 9.5 °C 7.8 °C 1003.7 hPa SE 1.4 km/h 6.4 km/h 89% 0.0 mm 0 W/m2
04:00 9.4 °C 7.7 °C 1003.4 hPa NNW 1.4 km/h 9.7 km/h 89% 0.0 mm 0 W/m2
04:05 9.4 °C 7.7 °C 1003.4 hPa SW 7.9 km/h 11.3 km/h 89% 0.0 mm 0 W/m2
04:11 9.3 °C 7.4 °C 1003.0 hPa Calm   3.2 km/h 88% 0.0 mm 0 W/m2
04:16 9.3 °C 7.6 °C 1003.0 hPa North 3.2 km/h 4.8 km/h 89% 0.0 mm 0 W/m2
04:21 9.3 °C 7.6 °C 1003.0 hPa Calm   11.3 km/h 89% 0.0 mm 0 W/m2
04:26 9.3 °C 7.6 °C 1003.0 hPa SSE 4.7 km/h 6.4 km/h 89% 0.0 mm 0 W/m2
04:31 9.3 °C 7.6 °C 1003.0 hPa NNE 3.2 km/h 11.3 km/h 89% 0.0 mm 0 W/m2
04:36 9.2 °C 7.5 °C 1002.7 hPa WSW 3.2 km/h 3.2 km/h 89% 0.0 mm 0 W/m2
04:41 9.2 °C 7.5 °C 1002.7 hPa Calm   3.2 km/h 89% 0.0 mm 0 W/m2
04:46 9.1 °C 7.4 °C 1002.7 hPa NW 3.2 km/h 4.8 km/h 89% 0.0 mm 0 W/m2
04:51 9 °C 7.3 °C 1002.4 hPa North 3.2 km/h 11.3 km/h 89% 0.0 mm 0 W/m2
04:56 8.9 °C 7.2 °C 1002.4 hPa NNW 3.2 km/h 6.4 km/h 89% 0.0 mm 0 W/m2
05:01 8.8 °C 7.1 °C 1002.0 hPa Calm   9.7 km/h 89% 0.0 mm 0 W/m2
05:06 8.8 °C 7.1 °C 1002.0 hPa North 1.4 km/h 3.2 km/h 89% 0.0 mm 0 W/m2
05:11 8.7 °C 7 °C 1002.0 hPa Calm   4.8 km/h 89% 0.0 mm 0 W/m2
05:16 8.6 °C 6.9 °C 1002.0 hPa North 4.7 km/h 4.8 km/h 89% 0.0 mm 0 W/m2
05:21 8.5 °C 6.8 °C 1002.0 hPa NNE 1.4 km/h 4.8 km/h 89% 0.0 mm 0 W/m2
05:26 8.4 °C 6.7 °C 1002.0 hPa ENE 3.2 km/h 6.4 km/h 89% 0.0 mm 0 W/m2
05:31 8.4 °C 6.9 °C 1001.7 hPa ENE 4.7 km/h 4.8 km/h 90% 0.0 mm 0 W/m2
05:36 8.3 °C 6.6 °C 1001.7 hPa ENE 1.4 km/h 8 km/h 89% 0.0 mm 0 W/m2
05:41 8.1 °C 6.2 °C 1001.7 hPa Calm   1.6 km/h 88% 0.0 mm 0 W/m2
05:46 7.8 °C 5.9 °C 1001.7 hPa SE 1.4 km/h 6.4 km/h 88% 0.0 mm 0 W/m2
05:51 7.4 °C 5.5 °C 1001.4 hPa Calm     88% 0.0 mm 0 W/m2
05:56 7.1 °C 5.4 °C 1001.4 hPa Calm     89% 0.0 mm 0 W/m2
06:01 6.8 °C 5.3 °C 1001.4 hPa Calm     90% 0.0 mm 0 W/m2
06:06 6.6 °C 5.2 °C 1001.4 hPa SE 1.4 km/h 1.6 km/h 91% 0.0 mm 0 W/m2
06:11 6.4 °C 5 °C 1001.4 hPa Calm   1.6 km/h 91% 0.0 mm 0 W/m2
06:16 6.3 °C 5.1 °C 1001.0 hPa Calm     92% 0.0 mm 0 W/m2
06:21 6.2 °C 5 °C 1001.0 hPa Calm   1.6 km/h 92% 0.0 mm 0 W/m2
06:26 6.1 °C 4.9 °C 1000.7 hPa Calm     92% 0.0 mm 0 W/m2
06:31 5.9 °C 4.7 °C 1000.7 hPa SE 1.4 km/h 3.2 km/h 92% 0.0 mm 0 W/m2
06:36 5.8 °C 4.8 °C 1000.3 hPa Calm   1.6 km/h 93% 0.0 mm 0 W/m2
06:41 5.7 °C 4.7 °C 1000.3 hPa Calm   3.2 km/h 93% 0.0 mm 0 W/m2
06:46 5.7 °C 4.7 °C 1000.3 hPa Calm   1.6 km/h 93% 0.0 mm 0 W/m2
06:51 5.7 °C 4.8 °C 1000.3 hPa NE 1.4 km/h 4.8 km/h 94% 0.0 mm 0 W/m2
06:56 5.7 °C 4.8 °C 1000.0 hPa NE 1.4 km/h 3.2 km/h 94% 0.0 mm 0 W/m2
07:01 5.7 °C 4.8 °C 999.7 hPa Calm     94% 0.0 mm 0 W/m2
07:06 5.5 °C 4.5 °C 999.7 hPa Calm     93% 0.0 mm 0 W/m2
07:11 5.3 °C 4.3 °C 999.7 hPa Calm     93% 0.0 mm 0 W/m2
07:16 5.1 °C 4.1 °C 999.7 hPa Calm   3.2 km/h 93% 0.0 mm 0 W/m2
07:21 5.1 °C 4.2 °C 999.3 hPa NE 4.7 km/h 4.8 km/h 94% 0.0 mm 0 W/m2
07:26 5.3 °C 4.6 °C 999.3 hPa Calm   1.6 km/h 95% 0.0 mm 0 W/m2
07:31 5.2 °C 4.3 °C 999.3 hPa Calm     94% 0.0 mm 5 W/m2
07:36 5.1 °C 4.2 °C 999.3 hPa SE 1.4 km/h 3.2 km/h 94% 0.0 mm 7 W/m2
07:41 5 °C 4.1 °C 999.0 hPa Calm   1.6 km/h 94% 0.0 mm 9 W/m2
07:46 4.9 °C 4 °C 999.0 hPa Calm   1.6 km/h 94% 0.0 mm 12 W/m2
07:51 4.8 °C 3.9 °C 999.0 hPa Calm   1.6 km/h 94% 0.0 mm 16 W/m2
07:56 4.8 °C 3.9 °C 998.6 hPa SE 1.4 km/h 3.2 km/h 94% 0.0 mm 26 W/m2
08:01 4.8 °C 4.1 °C 998.6 hPa ENE 1.4 km/h 3.2 km/h 95% 0.0 mm 33 W/m2
08:07 5 °C 4.3 °C 998.6 hPa Calm   3.2 km/h 95% 0.0 mm 40 W/m2
08:12 5.1 °C 4.4 °C 998.6 hPa Calm   3.2 km/h 95% 0.0 mm 49 W/m2
08:17 5.2 °C 4.5 °C 998.3 hPa Calm   3.2 km/h 95% 0.0 mm 46 W/m2
08:22 5.2 °C 4.5 °C 998.3 hPa Calm     95% 0.0 mm 42 W/m2
08:27 5.2 °C 4.5 °C 998.3 hPa Calm   3.2 km/h 95% 0.0 mm 37 W/m2
08:32 5.2 °C 4.5 °C 998.3 hPa Calm     95% 0.0 mm 42 W/m2
08:37 5.2 °C 4.5 °C 998.0 hPa Calm     95% 0.0 mm 54 W/m2
08:42 5.2 °C 4.5 °C 998.0 hPa Calm     95% 0.0 mm 84 W/m2
08:47 5.3 °C 4.6 °C 998.0 hPa Calm     95% 0.0 mm 107 W/m2
08:52 5.6 °C 5 °C 997.6 hPa ESE 1.4 km/h 3.2 km/h 96% 0.0 mm 125 W/m2
08:57 5.8 °C 5.2 °C 997.6 hPa Calm   3.2 km/h 96% 0.0 mm 98 W/m2
09:02 6.1 °C 5.4 °C 997.3 hPa Calm   1.6 km/h 95% 0.0 mm 86 W/m2
09:07 6.2 °C 5.5 °C 997.3 hPa Calm   3.2 km/h 95% 0.0 mm 81 W/m2
09:12 6.3 °C 5.4 °C 997.0 hPa South 1.4 km/h 3.2 km/h 94% 0.0 mm 95 W/m2
09:17 6.3 °C 5.4 °C 997.0 hPa Calm   1.6 km/h 94% 0.0 mm 135 W/m2
09:22 6.5 °C 5.6 °C 997.0 hPa Calm   3.2 km/h 94% 0.0 mm 134 W/m2
09:27 6.7 °C 5.8 °C 996.6 hPa Calm     94% 0.0 mm 118 W/m2
09:32 6.9 °C 6 °C 996.3 hPa Calm   3.2 km/h 94% 0.0 mm 207 W/m2
09:37 7.5 °C 6.3 °C 996.3 hPa NNE 3.2 km/h 6.4 km/h 92% 0.0 mm 178 W/m2
09:42 8.2 °C 6.5 °C 996.3 hPa NE 3.2 km/h 6.4 km/h 89% 0.0 mm 193 W/m2
09:47 8.7 °C 6.8 °C 995.9 hPa ENE 4.7 km/h 4.8 km/h 88% 0.0 mm 207 W/m2
09:52 9.3 °C 6.7 °C 995.9 hPa ENE 3.2 km/h 11.3 km/h 84% 0.0 mm 264 W/m2
09:57 9.6 °C 6.7 °C 995.9 hPa ESE 1.4 km/h 4.8 km/h 82% 0.0 mm 278 W/m2
10:02 10 °C 6.9 °C 995.6 hPa NNE 3.2 km/h 11.3 km/h 81% 0.0 mm 265 W/m2
10:07 10.5 °C 7.2 °C 995.6 hPa ENE 1.4 km/h 6.4 km/h 80% 0.0 mm 294 W/m2
10:12 11 °C 7.1 °C 995.3 hPa ENE 4.7 km/h 12.9 km/h 77% 0.0 mm 283 W/m2
10:17 11.4 °C 7.1 °C 995.3 hPa SSE 3.2 km/h 8 km/h 75% 0.0 mm 188 W/m2
10:22 11.8 °C 7.1 °C 994.9 hPa NE 3.2 km/h 8 km/h 73% 0.0 mm 279 W/m2
10:27 12.2 °C 7.1 °C 994.9 hPa NE 9.7 km/h 9.7 km/h 71% 0.0 mm 278 W/m2
10:32 12.4 °C 7.3 °C 994.9 hPa ENE 7.9 km/h 12.9 km/h 71% 0.0 mm 355 W/m2
10:38 12.7 °C 7.4 °C 994.9 hPa North 4.7 km/h 25.7 km/h 70% 0.0 mm 362 W/m2
10:43 12.9 °C 7.6 °C 994.6 hPa East 14.3 km/h 16.1 km/h 70% 0.0 mm 364 W/m2
10:48 13.1 °C 7.8 °C 994.6 hPa NE 11.1 km/h 20.9 km/h 70% 0.0 mm 410 W/m2
10:53 13.2 °C 7.8 °C 994.2 hPa NE 7.9 km/h 9.7 km/h 70% 0.0 mm 272 W/m2
10:58 13.4 °C 7.8 °C 994.2 hPa NNW 14.3 km/h 16.1 km/h 69% 0.0 mm 202 W/m2
11:03 13.4 °C 7.6 °C 994.2 hPa NNW 4.7 km/h 17.7 km/h 68% 0.0 mm 246 W/m2
11:08 13.4 °C 7.6 °C 994.2 hPa ESE 4.7 km/h 12.9 km/h 68% 0.0 mm 200 W/m2
11:13 13.4 °C 7.6 °C 994.2 hPa NE 4.7 km/h 12.9 km/h 68% 0.0 mm 378 W/m2
11:18 13.5 °C 7.9 °C 994.2 hPa North 7.9 km/h 12.9 km/h 69% 0.0 mm 320 W/m2
11:23 13.7 °C 8.1 °C 993.9 hPa WSW 16.3 km/h 17.7 km/h 69% 0.0 mm 336 W/m2
11:28 13.7 °C 7.9 °C 994.2 hPa NW 1.4 km/h 25.7 km/h 68% 0.0 mm 274 W/m2
11:33 13.7 °C 7.9 °C 994.2 hPa South 1.4 km/h 12.9 km/h 68% 0.0 mm 257 W/m2
11:38 13.8 °C 8 °C 993.9 hPa WNW 7.9 km/h 25.7 km/h 68% 0.0 mm 272 W/m2
11:43 13.8 °C 8.2 °C 993.9 hPa NNW 6.4 km/h 14.5 km/h 69% 0.0 mm 178 W/m2
11:48 13.8 °C 7.8 °C 994.2 hPa West 16.3 km/h 20.9 km/h 67% 0.0 mm 151 W/m2
11:53 13.8 °C 7.8 °C 993.9 hPa ENE 17.7 km/h 17.7 km/h 67% 0.0 mm 155 W/m2
11:58 13.8 °C 8 °C 993.9 hPa NW 9.7 km/h 19.3 km/h 68% 0.0 mm 197 W/m2
12:03 13.8 °C 8 °C 993.6 hPa NNE 3.2 km/h 11.3 km/h 68% 0.0 mm 206 W/m2
12:08 13.8 °C 8 °C 993.9 hPa North 3.2 km/h 12.9 km/h 68% 0.0 mm 183 W/m2
12:13 13.8 °C 7.8 °C 993.6 hPa WNW 4.7 km/h 17.7 km/h 67% 0.0 mm 236 W/m2
12:18 13.9 °C 7.9 °C 993.6 hPa ENE 4.7 km/h 6.4 km/h 67% 0.0 mm 195 W/m2
12:23 13.9 °C 8.1 °C 993.6 hPa NNE 9.7 km/h 9.7 km/h 68% 0.0 mm 151 W/m2
12:28 13.9 °C 8.1 °C 993.6 hPa SW 4.7 km/h 19.3 km/h 68% 0.0 mm 183 W/m2
12:33 13.9 °C 7.9 °C 993.6 hPa ENE 13 km/h 19.3 km/h 67% 0.0 mm 105 W/m2
12:38 13.9 °C 8.1 °C 993.6 hPa North 6.4 km/h 14.5 km/h 68% 0.0 mm 123 W/m2
12:43 13.9 °C 8.1 °C 993.6 hPa NW 3.2 km/h 12.9 km/h 68% 0.0 mm 123 W/m2
12:48 13.8 °C 8 °C 993.2 hPa NE 4.7 km/h 12.9 km/h 68% 0.0 mm 176 W/m2
12:53 13.8 °C 8.2 °C 993.2 hPa ENE 7.9 km/h 19.3 km/h 69% 0.0 mm 114 W/m2
12:58 13.8 °C 8.2 °C 992.9 hPa NNW 6.4 km/h 8 km/h 69% 0.0 mm 135 W/m2
13:03 13.8 °C 8.2 °C 992.9 hPa NNW 3.2 km/h 19.3 km/h 69% 0.0 mm 118 W/m2
13:08 13.8 °C 8.2 °C 992.5 hPa NE 4.7 km/h 12.9 km/h 69% 0.0 mm 120 W/m2
13:13 13.8 °C 8.2 °C 992.5 hPa WNW 13 km/h 17.7 km/h 69% 0.0 mm 56 W/m2
13:18 13.6 °C 8.4 °C 992.5 hPa NW 4.7 km/h 16.1 km/h 71% 0.0 mm 93 W/m2
13:23 13.4 °C 8.7 °C 992.5 hPa West 19.5 km/h 19.3 km/h 73% 0.0 mm 56 W/m2
13:28 13.1 °C 8.8 °C 992.9 hPa ESE 3.2 km/h 14.5 km/h 75% 0.2 mm 47 W/m2
13:33 12.7 °C 8.8 °C 992.9 hPa NNW 7.9 km/h 20.9 km/h 77% 0.5 mm 54 W/m2
13:38 12.2 °C 8.9 °C 992.9 hPa WNW 22.7 km/h 24.1 km/h 80% 0.8 mm 35 W/m2
13:43 11.8 °C 8.6 °C 993.2 hPa South 3.2 km/h 16.1 km/h 81% 1.0 mm 40 W/m2
13:48 11.6 °C 8.8 °C 992.9 hPa WNW 22.5 km/h 22.5 km/h 83% 1.3 mm 74 W/m2
13:53 11.3 °C 8.7 °C 992.9 hPa NW 4.7 km/h 9.7 km/h 84% 1.3 mm 58 W/m2
13:58 11.1 °C 8.7 °C 992.9 hPa West 3.2 km/h 17.7 km/h 85% 1.5 mm 72 W/m2
14:03 10.9 °C 8.6 °C 992.9 hPa West 4.7 km/h 6.4 km/h 86% 1.5 mm 25 W/m2
14:08 10.8 °C 8.7 °C 993.2 hPa NNW 3.2 km/h 19.3 km/h 87% 2.3 mm 19 W/m2
14:13 10.5 °C 8.6 °C 992.9 hPa SSE 6.4 km/h 22.5 km/h 88% 2.3 mm 23 W/m2
14:18 10.3 °C 8.4 °C 993.2 hPa WSW 6.4 km/h 16.1 km/h 88% 2.5 mm 30 W/m2
14:23 10.2 °C 8.3 °C 992.9 hPa SE 6.4 km/h 25.7 km/h 88% 2.8 mm 74 W/m2
14:28 10.2 °C 8.3 °C 992.9 hPa WNW 4.7 km/h 16.1 km/h 88% 2.5 mm 134 W/m2
14:33 10.1 °C 8.2 °C 992.9 hPa SE 1.4 km/h 22.5 km/h 88% 2.3 mm 109 W/m2
14:39 10.2 °C 8.5 °C 992.9 hPa West 20.9 km/h 25.7 km/h 89% 2.0 mm 67 W/m2
14:44 10.2 °C 8.3 °C 992.9 hPa WNW 19.5 km/h 19.3 km/h 88% 1.5 mm 37 W/m2
14:49 10.3 °C 8.4 °C 992.9 hPa WNW 14.3 km/h 25.7 km/h 88% 1.5 mm 49 W/m2
14:54 10.4 °C 8.3 °C 992.9 hPa NNW 13 km/h 17.7 km/h 87% 1.8 mm 49 W/m2
14:59 10.4 °C 8.2 °C 992.9 hPa SSW 4.7 km/h 9.7 km/h 86% 1.5 mm 65 W/m2
15:04 10.5 °C 8.3 °C 992.9 hPa West 9.7 km/h 20.9 km/h 86% 1.5 mm 181 W/m2
15:09 10.6 °C 8.4 °C 992.5 hPa NNW 4.7 km/h 11.3 km/h 86% 1.0 mm 109 W/m2
15:14 10.6 °C 8.4 °C 992.5 hPa West 13 km/h 22.5 km/h 86% 0.8 mm 76 W/m2
15:19 10.5 °C 8.3 °C 992.5 hPa WNW 6.4 km/h 6.4 km/h 86% 0.5 mm 113 W/m2
15:24 10.6 °C 8.4 °C 992.5 hPa NW 7.9 km/h 8 km/h 86% 0.5 mm 146 W/m2
15:29 10.6 °C 8.2 °C 992.5 hPa WSW 14.3 km/h 27.4 km/h 85% 0.5 mm 65 W/m2
15:34 10.6 °C 8.2 °C 992.5 hPa North 4.7 km/h 6.4 km/h 85% 0.5 mm 88 W/m2
15:39 10.5 °C 8.3 °C 993.2 hPa West 6.4 km/h 27.4 km/h 86% 0.5 mm 47 W/m2
15:44 9.7 °C 7 °C 993.6 hPa WNW 16.3 km/h 25.7 km/h 83% 0.5 mm 63 W/m2
15:49 9.1 °C 6.5 °C 993.6 hPa West 9.7 km/h 25.7 km/h 84% 0.5 mm 135 W/m2
15:54 8.7 °C 6.3 °C 993.9 hPa West 17.7 km/h 24.1 km/h 85% 0.5 mm 44 W/m2
15:59 8.4 °C 6.2 °C 993.6 hPa WSW 19.5 km/h 19.3 km/h 86% 0.5 mm 53 W/m2
16:04 8.3 °C 6.1 °C 993.9 hPa West 22.7 km/h 22.5 km/h 86% 0.2 mm 74 W/m2
16:09 8.3 °C 6.1 °C 993.9 hPa WNW 13 km/h 17.7 km/h 86% 0.2 mm 63 W/m2
16:14 8.3 °C 6.1 °C 993.9 hPa West 13 km/h 17.7 km/h 86% 0.2 mm 54 W/m2
16:20 8.2 °C 6 °C 993.9 hPa NW 4.7 km/h 16.1 km/h 86% 0.2 mm 53 W/m2
16:25 8.2 °C 6 °C 994.2 hPa West 11.1 km/h 20.9 km/h 86% 0.2 mm 44 W/m2
16:30 8.2 °C 6 °C 994.2 hPa WNW 19.5 km/h 19.3 km/h 86% 0.2 mm 44 W/m2
Juneau County Weather
Compliments of Weather Underground - 4 mb